KAHN

Athens / Ben Epps Airport

Athens, Georgia, USA
METAR KAHN 221351Z VRB03KT 10SM FEW013 26/21 A3015 RMK AO2 SLP204 T02560211
Observed Flight Rules
Sep-22 @ 13:51 UTC (an hour ago) Visual Flight Rules
Wind Visibility Clouds
Variable at 3 knots 10 miles
Temperatures Readings
Current 26°C / 79°F
Dewpoint 21°C / 70°F
Humidity 74%
Altimeter 30.15" Hg
Pressure 1020.4 hPa
Elevation 244
METAR KAHN 221351Z VRB03KT 10SM FEW013 26/21 A3015 RMK AO2 SLP204 T02560211
Observed Flight Rules
Sep-22 @ 13:51 UTC
(an hour ago)
VFR
Wind Visibility
Variable at 3 knots 10 miles
Clouds
Temperature Dewpoint
26°C / 79°F 21°C / 70°F
Humidity Altimeter Pressure
74% 30.15" Hg 1020.4 hPa